sensor_id;sensor_type;location;lat;lon;timestamp;P1;durP1;ratioP1;P2;durP2;ratioP2
23338;SDS011;11841;49.368;20.962;2023-05-07T00:02:40;16.25;;;9.85;;
23338;SDS011;11841;49.368;20.962;2023-05-07T00:05:26;15.73;;;9.30;;
23338;SDS011;11841;49.368;20.962;2023-05-07T00:08:11;19.23;;;9.98;;
23338;SDS011;11841;49.368;20.962;2023-05-07T00:10:57;17.30;;;10.18;;
23338;SDS011;11841;49.368;20.962;2023-05-07T00:13:42;15.35;;;9.00;;
23338;SDS011;11841;49.368;20.962;2023-05-07T00:16:27;15.35;;;7.45;;
23338;SDS011;11841;49.368;20.962;2023-05-07T00:19:13;17.40;;;8.20;;
23338;SDS011;11841;49.368;20.962;2023-05-07T00:21:58;12.77;;;8.20;;
23338;SDS011;11841;49.368;20.962;2023-05-07T00:24:43;12.07;;;8.48;;
23338;SDS011;11841;49.368;20.962;2023-05-07T00:27:29;13.88;;;7.45;;
23338;SDS011;11841;49.368;20.962;2023-05-07T00:30:14;14.25;;;8.43;;
23338;SDS011;11841;49.368;20.962;2023-05-07T00:32:59;13.63;;;7.68;;
23338;SDS011;11841;49.368;20.962;2023-05-07T00:35:44;15.00;;;8.50;;
23338;SDS011;11841;49.368;20.962;2023-05-07T00:38:30;13.75;;;9.00;;
23338;SDS011;11841;49.368;20.962;2023-05-07T00:41:15;16.75;;;7.50;;
23338;SDS011;11841;49.368;20.962;2023-05-07T00:44:00;10.63;;;7.00;;
23338;SDS011;11841;49.368;20.962;2023-05-07T00:46:47;12.70;;;8.35;;
23338;SDS011;11841;49.368;20.962;2023-05-07T00:49:38;11.73;;;6.97;;
23338;SDS011;11841;49.368;20.962;2023-05-07T00:52:26;11.93;;;7.47;;
23338;SDS011;11841;49.368;20.962;2023-05-07T00:55:12;12.65;;;8.35;;
23338;SDS011;11841;49.368;20.962;2023-05-07T00:57:59;19.50;;;9.18;;
23338;SDS011;11841;49.368;20.962;2023-05-07T01:00:44;22.25;;;8.50;;
23338;SDS011;11841;49.368;20.962;2023-05-07T01:03:30;16.13;;;8.80;;
23338;SDS011;11841;49.368;20.962;2023-05-07T01:06:16;18.25;;;8.00;;
23338;SDS011;11841;49.368;20.962;2023-05-07T01:09:02;12.82;;;7.35;;
23338;SDS011;11841;49.368;20.962;2023-05-07T01:11:49;12.73;;;7.80;;
23338;SDS011;11841;49.368;20.962;2023-05-07T01:14:36;20.15;;;7.93;;
23338;SDS011;11841;49.368;20.962;2023-05-07T01:17:22;13.07;;;8.23;;
23338;SDS011;11841;49.368;20.962;2023-05-07T01:20:08;12.88;;;8.75;;
23338;SDS011;11841;49.368;20.962;2023-05-07T01:22:56;11.05;;;7.95;;
23338;SDS011;11841;49.368;20.962;2023-05-07T01:25:42;14.52;;;8.20;;
23338;SDS011;11841;49.368;20.962;2023-05-07T01:28:27;13.20;;;8.77;;
23338;SDS011;11841;49.368;20.962;2023-05-07T01:31:12;21.08;;;8.50;;
23338;SDS011;11841;49.368;20.962;2023-05-07T01:33:59;13.70;;;8.18;;
23338;SDS011;11841;49.368;20.962;2023-05-07T01:36:47;15.10;;;8.65;;
23338;SDS011;11841;49.368;20.962;2023-05-07T01:39:33;12.07;;;7.78;;
23338;SDS011;11841;49.368;20.962;2023-05-07T01:42:21;11.57;;;7.13;;
23338;SDS011;11841;49.368;20.962;2023-05-07T01:45:06;11.15;;;7.45;;
23338;SDS011;11841;49.368;20.962;2023-05-07T01:47:52;9.85;;;6.85;;
23338;SDS011;11841;49.368;20.962;2023-05-07T01:50:40;13.82;;;7.80;;
23338;SDS011;11841;49.368;20.962;2023-05-07T01:53:27;11.32;;;6.90;;
23338;SDS011;11841;49.368;20.962;2023-05-07T01:56:12;12.48;;;7.90;;
23338;SDS011;11841;49.368;20.962;2023-05-07T01:58:58;14.43;;;7.93;;
23338;SDS011;11841;49.368;20.962;2023-05-07T02:01:43;19.23;;;7.72;;
23338;SDS011;11841;49.368;20.962;2023-05-07T02:04:28;12.00;;;8.40;;
23338;SDS011;11841;49.368;20.962;2023-05-07T02:07:14;13.93;;;8.77;;
23338;SDS011;11841;49.368;20.962;2023-05-07T02:09:59;14.70;;;7.43;;
23338;SDS011;11841;49.368;20.962;2023-05-07T02:12:44;15.95;;;8.60;;
23338;SDS011;11841;49.368;20.962;2023-05-07T02:15:29;14.60;;;8.27;;
23338;SDS011;11841;49.368;20.962;2023-05-07T02:18:15;10.60;;;7.45;;
23338;SDS011;11841;49.368;20.962;2023-05-07T02:21:01;13.98;;;8.75;;
23338;SDS011;11841;49.368;20.962;2023-05-07T02:23:46;14.30;;;8.27;;
23338;SDS011;11841;49.368;20.962;2023-05-07T02:26:31;15.05;;;8.30;;
23338;SDS011;11841;49.368;20.962;2023-05-07T02:29:17;15.65;;;9.07;;
23338;SDS011;11841;49.368;20.962;2023-05-07T02:32:02;13.00;;;8.15;;
23338;SDS011;11841;49.368;20.962;2023-05-07T02:34:49;13.05;;;8.68;;
23338;SDS011;11841;49.368;20.962;2023-05-07T02:37:35;14.05;;;8.45;;
23338;SDS011;11841;49.368;20.962;2023-05-07T02:40:21;15.48;;;9.02;;
23338;SDS011;11841;49.368;20.962;2023-05-07T02:43:06;15.63;;;8.30;;
23338;SDS011;11841;49.368;20.962;2023-05-07T02:46:04;11.85;;;7.82;;
23338;SDS011;11841;49.368;20.962;2023-05-07T02:48:51;12.77;;;7.25;;
23338;SDS011;11841;49.368;20.962;2023-05-07T02:51:36;13.02;;;7.82;;
23338;SDS011;11841;49.368;20.962;2023-05-07T02:54:22;13.35;;;8.65;;
23338;SDS011;11841;49.368;20.962;2023-05-07T02:57:07;15.70;;;8.52;;
23338;SDS011;11841;49.368;20.962;2023-05-07T02:59:52;15.27;;;8.82;;
23338;SDS011;11841;49.368;20.962;2023-05-07T03:02:37;18.13;;;9.70;;
23338;SDS011;11841;49.368;20.962;2023-05-07T03:05:23;20.58;;;10.48;;
23338;SDS011;11841;49.368;20.962;2023-05-07T03:08:08;19.63;;;11.88;;
23338;SDS011;11841;49.368;20.962;2023-05-07T03:10:54;23.48;;;10.57;;
23338;SDS011;11841;49.368;20.962;2023-05-07T03:13:39;19.00;;;10.60;;
23338;SDS011;11841;49.368;20.962;2023-05-07T03:16:25;16.10;;;9.98;;
23338;SDS011;11841;49.368;20.962;2023-05-07T03:19:10;16.52;;;10.85;;
23338;SDS011;11841;49.368;20.962;2023-05-07T03:21:56;20.45;;;11.07;;
23338;SDS011;11841;49.368;20.962;2023-05-07T03:24:42;21.55;;;10.65;;
23338;SDS011;11841;49.368;20.962;2023-05-07T03:27:27;19.42;;;10.98;;
23338;SDS011;11841;49.368;20.962;2023-05-07T03:30:12;17.33;;;10.02;;
23338;SDS011;11841;49.368;20.962;2023-05-07T03:32:58;13.80;;;9.07;;
23338;SDS011;11841;49.368;20.962;2023-05-07T03:35:43;15.25;;;9.70;;
23338;SDS011;11841;49.368;20.962;2023-05-07T03:38:28;20.38;;;10.00;;
23338;SDS011;11841;49.368;20.962;2023-05-07T03:41:13;16.45;;;8.85;;
23338;SDS011;11841;49.368;20.962;2023-05-07T03:43:59;15.25;;;9.35;;
23338;SDS011;11841;49.368;20.962;2023-05-07T03:46:44;23.70;;;12.70;;
23338;SDS011;11841;49.368;20.962;2023-05-07T03:49:30;23.55;;;11.68;;
23338;SDS011;11841;49.368;20.962;2023-05-07T03:52:15;17.13;;;11.32;;
23338;SDS011;11841;49.368;20.962;2023-05-07T03:55:00;17.85;;;11.40;;
23338;SDS011;11841;49.368;20.962;2023-05-07T03:57:46;17.88;;;10.93;;
23338;SDS011;11841;49.368;20.962;2023-05-07T04:00:31;20.88;;;11.48;;
23338;SDS011;11841;49.368;20.962;2023-05-07T04:03:18;20.50;;;11.68;;
23338;SDS011;11841;49.368;20.962;2023-05-07T04:06:04;19.80;;;12.07;;
23338;SDS011;11841;49.368;20.962;2023-05-07T04:08:49;21.50;;;12.20;;
23338;SDS011;11841;49.368;20.962;2023-05-07T04:11:35;37.38;;;16.38;;
23338;SDS011;11841;49.368;20.962;2023-05-07T04:14:20;33.40;;;15.88;;
23338;SDS011;11841;49.368;20.962;2023-05-07T04:17:06;26.90;;;14.52;;
23338;SDS011;11841;49.368;20.962;2023-05-07T04:19:51;27.05;;;13.77;;
23338;SDS011;11841;49.368;20.962;2023-05-07T04:22:37;23.15;;;12.23;;
23338;SDS011;11841;49.368;20.962;2023-05-07T04:25:22;19.63;;;11.80;;
23338;SDS011;11841;49.368;20.962;2023-05-07T04:30:57;21.60;;;12.30;;
23338;SDS011;11841;49.368;20.962;2023-05-07T04:33:42;22.50;;;13.20;;
23338;SDS011;11841;49.368;20.962;2023-05-07T04:36:27;21.60;;;13.40;;
23338;SDS011;11841;49.368;20.962;2023-05-07T04:39:13;21.30;;;13.02;;
23338;SDS011;11841;49.368;20.962;2023-05-07T04:41:59;19.83;;;12.80;;
23338;SDS011;11841;49.368;20.962;2023-05-07T04:44:45;15.43;;;10.38;;
23338;SDS011;11841;49.368;20.962;2023-05-07T04:47:30;20.58;;;12.07;;
23338;SDS011;11841;49.368;20.962;2023-05-07T04:50:16;17.52;;;11.02;;
23338;SDS011;11841;49.368;20.962;2023-05-07T04:53:02;21.00;;;11.77;;
23338;SDS011;11841;49.368;20.962;2023-05-07T04:55:47;22.08;;;12.50;;
23338;SDS011;11841;49.368;20.962;2023-05-07T04:58:33;21.92;;;13.02;;
23338;SDS011;11841;49.368;20.962;2023-05-07T05:01:18;18.73;;;12.63;;
23338;SDS011;11841;49.368;20.962;2023-05-07T05:04:04;23.13;;;13.57;;
23338;SDS011;11841;49.368;20.962;2023-05-07T05:06:49;19.13;;;11.43;;
23338;SDS011;11841;49.368;20.962;2023-05-07T05:09:34;23.08;;;12.20;;
23338;SDS011;11841;49.368;20.962;2023-05-07T05:12:19;21.95;;;12.82;;
23338;SDS011;11841;49.368;20.962;2023-05-07T05:15:05;20.30;;;10.95;;
23338;SDS011;11841;49.368;20.962;2023-05-07T05:17:51;20.13;;;11.48;;
23338;SDS011;11841;49.368;20.962;2023-05-07T05:20:36;18.17;;;10.50;;
23338;SDS011;11841;49.368;20.962;2023-05-07T05:23:21;17.35;;;10.43;;
23338;SDS011;11841;49.368;20.962;2023-05-07T05:26:07;14.02;;;9.15;;
23338;SDS011;11841;49.368;20.962;2023-05-07T05:28:52;14.57;;;8.55;;
23338;SDS011;11841;49.368;20.962;2023-05-07T05:31:37;16.60;;;10.32;;
23338;SDS011;11841;49.368;20.962;2023-05-07T05:34:22;13.75;;;8.68;;
23338;SDS011;11841;49.368;20.962;2023-05-07T05:37:08;16.02;;;9.05;;
23338;SDS011;11841;49.368;20.962;2023-05-07T05:39:53;15.70;;;9.13;;
23338;SDS011;11841;49.368;20.962;2023-05-07T05:42:39;15.32;;;8.85;;
23338;SDS011;11841;49.368;20.962;2023-05-07T05:45:25;13.77;;;9.15;;
23338;SDS011;11841;49.368;20.962;2023-05-07T05:48:10;17.45;;;9.90;;
23338;SDS011;11841;49.368;20.962;2023-05-07T05:50:56;14.82;;;8.88;;
23338;SDS011;11841;49.368;20.962;2023-05-07T05:53:42;17.40;;;8.65;;
23338;SDS011;11841;49.368;20.962;2023-05-07T05:56:27;13.40;;;8.95;;
23338;SDS011;11841;49.368;20.962;2023-05-07T05:59:12;13.82;;;8.60;;
23338;SDS011;11841;49.368;20.962;2023-05-07T06:01:57;13.27;;;9.63;;
23338;SDS011;11841;49.368;20.962;2023-05-07T06:04:43;13.32;;;8.98;;
23338;SDS011;11841;49.368;20.962;2023-05-07T06:07:28;13.88;;;8.98;;
23338;SDS011;11841;49.368;20.962;2023-05-07T06:10:13;14.45;;;9.88;;
23338;SDS011;11841;49.368;20.962;2023-05-07T06:12:59;14.80;;;9.77;;
23338;SDS011;11841;49.368;20.962;2023-05-07T06:15:44;17.70;;;9.70;;
23338;SDS011;11841;49.368;20.962;2023-05-07T06:18:29;15.30;;;9.43;;
23338;SDS011;11841;49.368;20.962;2023-05-07T06:21:15;14.25;;;9.85;;
23338;SDS011;11841;49.368;20.962;2023-05-07T06:24:01;18.10;;;10.13;;
23338;SDS011;11841;49.368;20.962;2023-05-07T06:26:47;13.18;;;9.60;;
23338;SDS011;11841;49.368;20.962;2023-05-07T06:29:32;14.77;;;9.60;;
23338;SDS011;11841;49.368;20.962;2023-05-07T06:32:18;17.75;;;9.60;;
23338;SDS011;11841;49.368;20.962;2023-05-07T06:35:04;17.35;;;10.70;;
23338;SDS011;11841;49.368;20.962;2023-05-07T06:37:49;19.00;;;10.60;;
23338;SDS011;11841;49.368;20.962;2023-05-07T06:40:34;19.20;;;10.07;;
23338;SDS011;11841;49.368;20.962;2023-05-07T06:43:19;16.38;;;9.80;;
23338;SDS011;11841;49.368;20.962;2023-05-07T06:46:04;17.05;;;9.80;;
23338;SDS011;11841;49.368;20.962;2023-05-07T06:48:50;19.63;;;10.48;;
23338;SDS011;11841;49.368;20.962;2023-05-07T06:51:35;16.58;;;8.93;;
23338;SDS011;11841;49.368;20.962;2023-05-07T06:54:20;15.73;;;9.23;;
23338;SDS011;11841;49.368;20.962;2023-05-07T06:57:08;15.27;;;9.73;;
23338;SDS011;11841;49.368;20.962;2023-05-07T06:59:53;14.73;;;8.77;;
23338;SDS011;11841;49.368;20.962;2023-05-07T07:02:39;16.38;;;9.10;;
23338;SDS011;11841;49.368;20.962;2023-05-07T07:05:24;14.13;;;9.02;;
23338;SDS011;11841;49.368;20.962;2023-05-07T07:08:10;14.85;;;9.48;;
23338;SDS011;11841;49.368;20.962;2023-05-07T07:10:55;14.75;;;9.32;;
23338;SDS011;11841;49.368;20.962;2023-05-07T07:13:41;16.58;;;9.77;;
23338;SDS011;11841;49.368;20.962;2023-05-07T07:16:27;15.52;;;9.68;;
23338;SDS011;11841;49.368;20.962;2023-05-07T07:19:12;15.63;;;8.45;;
23338;SDS011;11841;49.368;20.962;2023-05-07T07:22:00;16.65;;;9.45;;
23338;SDS011;11841;49.368;20.962;2023-05-07T07:24:45;12.25;;;8.35;;
23338;SDS011;11841;49.368;20.962;2023-05-07T07:27:31;17.10;;;8.85;;
23338;SDS011;11841;49.368;20.962;2023-05-07T07:30:16;13.82;;;8.68;;
23338;SDS011;11841;49.368;20.962;2023-05-07T07:33:01;15.18;;;9.32;;
23338;SDS011;11841;49.368;20.962;2023-05-07T07:35:48;16.35;;;9.43;;
23338;SDS011;11841;49.368;20.962;2023-05-07T07:38:33;12.48;;;7.32;;
23338;SDS011;11841;49.368;20.962;2023-05-07T07:41:19;16.48;;;9.93;;
23338;SDS011;11841;49.368;20.962;2023-05-07T07:44:04;19.27;;;8.65;;
23338;SDS011;11841;49.368;20.962;2023-05-07T07:46:52;14.00;;;8.68;;
23338;SDS011;11841;49.368;20.962;2023-05-07T07:49:37;10.98;;;7.72;;
23338;SDS011;11841;49.368;20.962;2023-05-07T07:52:23;13.27;;;7.75;;
23338;SDS011;11841;49.368;20.962;2023-05-07T07:55:08;16.30;;;7.47;;
23338;SDS011;11841;49.368;20.962;2023-05-07T07:57:53;11.27;;;6.53;;
23338;SDS011;11841;49.368;20.962;2023-05-07T08:00:39;10.88;;;7.05;;
23338;SDS011;11841;49.368;20.962;2023-05-07T08:03:24;11.90;;;7.45;;
23338;SDS011;11841;49.368;20.962;2023-05-07T08:06:10;10.25;;;6.38;;
23338;SDS011;11841;49.368;20.962;2023-05-07T08:08:55;11.63;;;7.22;;
23338;SDS011;11841;49.368;20.962;2023-05-07T08:11:40;11.68;;;6.60;;
23338;SDS011;11841;49.368;20.962;2023-05-07T08:14:26;9.38;;;6.00;;
23338;SDS011;11841;49.368;20.962;2023-05-07T08:17:13;12.10;;;7.45;;
23338;SDS011;11841;49.368;20.962;2023-05-07T08:20:00;10.00;;;6.50;;
23338;SDS011;11841;49.368;20.962;2023-05-07T08:22:46;9.80;;;6.90;;
23338;SDS011;11841;49.368;20.962;2023-05-07T08:25:32;9.55;;;6.28;;
23338;SDS011;11841;49.368;20.962;2023-05-07T08:28:18;10.88;;;7.47;;
23338;SDS011;11841;49.368;20.962;2023-05-07T08:31:05;9.05;;;5.90;;
23338;SDS011;11841;49.368;20.962;2023-05-07T08:33:50;10.48;;;6.68;;
23338;SDS011;11841;49.368;20.962;2023-05-07T08:36:35;8.50;;;5.95;;
23338;SDS011;11841;49.368;20.962;2023-05-07T08:39:21;9.73;;;5.53;;
23338;SDS011;11841;49.368;20.962;2023-05-07T08:42:06;9.68;;;5.50;;
23338;SDS011;11841;49.368;20.962;2023-05-07T08:44:53;7.53;;;4.88;;
23338;SDS011;11841;49.368;20.962;2023-05-07T08:47:44;10.95;;;5.88;;
23338;SDS011;11841;49.368;20.962;2023-05-07T08:50:32;14.55;;;6.82;;
23338;SDS011;11841;49.368;20.962;2023-05-07T08:53:21;9.88;;;6.07;;
23338;SDS011;11841;49.368;20.962;2023-05-07T08:56:06;9.35;;;6.38;;
23338;SDS011;11841;49.368;20.962;2023-05-07T08:58:53;8.02;;;4.57;;
23338;SDS011;11841;49.368;20.962;2023-05-07T09:01:41;7.40;;;5.15;;
23338;SDS011;11841;49.368;20.962;2023-05-07T09:04:27;6.30;;;4.07;;
23338;SDS011;11841;49.368;20.962;2023-05-07T09:07:12;6.30;;;4.05;;
23338;SDS011;11841;49.368;20.962;2023-05-07T09:09:58;6.13;;;4.10;;
23338;SDS011;11841;49.368;20.962;2023-05-07T09:12:46;4.85;;;3.60;;
23338;SDS011;11841;49.368;20.962;2023-05-07T09:15:32;6.20;;;4.30;;
23338;SDS011;11841;49.368;20.962;2023-05-07T09:18:17;5.05;;;3.38;;
23338;SDS011;11841;49.368;20.962;2023-05-07T09:21:02;6.40;;;4.60;;
23338;SDS011;11841;49.368;20.962;2023-05-07T09:23:48;9.45;;;5.40;;
23338;SDS011;11841;49.368;20.962;2023-05-07T09:26:35;5.40;;;3.35;;
23338;SDS011;11841;49.368;20.962;2023-05-07T09:29:20;4.55;;;3.30;;
23338;SDS011;11841;49.368;20.962;2023-05-07T09:32:06;4.95;;;3.13;;
23338;SDS011;11841;49.368;20.962;2023-05-07T09:34:52;4.15;;;3.03;;
23338;SDS011;11841;49.368;20.962;2023-05-07T09:37:38;4.70;;;2.92;;
23338;SDS011;11841;49.368;20.962;2023-05-07T09:40:24;3.28;;;2.22;;
23338;SDS011;11841;49.368;20.962;2023-05-07T09:43:11;3.40;;;2.50;;
23338;SDS011;11841;49.368;20.962;2023-05-07T09:45:58;2.47;;;1.83;;
23338;SDS011;11841;49.368;20.962;2023-05-07T09:48:47;2.17;;;1.90;;
23338;SDS011;11841;49.368;20.962;2023-05-07T09:51:36;2.03;;;1.42;;
23338;SDS011;11841;49.368;20.962;2023-05-07T09:54:30;1.80;;;1.48;;
23338;SDS011;11841;49.368;20.962;2023-05-07T09:57:17;1.80;;;1.60;;
23338;SDS011;11841;49.368;20.962;2023-05-07T10:00:06;3.75;;;2.13;;
23338;SDS011;11841;49.368;20.962;2023-05-07T10:02:54;1.77;;;1.55;;
23338;SDS011;11841;49.368;20.962;2023-05-07T10:05:42;4.10;;;1.65;;
23338;SDS011;11841;49.368;20.962;2023-05-07T10:08:30;1.45;;;1.25;;
23338;SDS011;11841;49.368;20.962;2023-05-07T10:11:15;2.05;;;1.38;;
23338;SDS011;11841;49.368;20.962;2023-05-07T10:14:04;1.35;;;1.25;;
23338;SDS011;11841;49.368;20.962;2023-05-07T10:16:53;1.70;;;1.30;;
23338;SDS011;11841;49.368;20.962;2023-05-07T10:19:39;1.58;;;1.30;;
23338;SDS011;11841;49.368;20.962;2023-05-07T10:22:25;1.23;;;1.02;;
23338;SDS011;11841;49.368;20.962;2023-05-07T10:25:20;1.83;;;1.42;;
23338;SDS011;11841;49.368;20.962;2023-05-07T10:28:10;1.50;;;1.17;;
23338;SDS011;11841;49.368;20.962;2023-05-07T10:30:59;1.40;;;1.30;;
23338;SDS011;11841;49.368;20.962;2023-05-07T10:33:54;1.50;;;1.40;;
23338;SDS011;11841;49.368;20.962;2023-05-07T10:36:41;1.88;;;1.38;;
23338;SDS011;11841;49.368;20.962;2023-05-07T10:39:27;1.58;;;1.20;;
23338;SDS011;11841;49.368;20.962;2023-05-07T10:42:13;3.03;;;1.63;;
23338;SDS011;11841;49.368;20.962;2023-05-07T10:45:11;1.45;;;1.20;;
23338;SDS011;11841;49.368;20.962;2023-05-07T10:48:07;1.45;;;1.20;;
23338;SDS011;11841;49.368;20.962;2023-05-07T10:51:20;2.05;;;1.45;;
23338;SDS011;11841;49.368;20.962;2023-05-07T10:56:58;2.58;;;2.00;;
23338;SDS011;11841;49.368;20.962;2023-05-07T11:03:23;2.10;;;1.77;;
23338;SDS011;11841;49.368;20.962;2023-05-07T11:06:10;5.78;;;2.20;;
23338;SDS011;11841;49.368;20.962;2023-05-07T11:08:56;1.88;;;1.77;;
23338;SDS011;11841;49.368;20.962;2023-05-07T11:11:46;1.90;;;1.60;;
23338;SDS011;11841;49.368;20.962;2023-05-07T11:17:26;5.38;;;1.90;;
23338;SDS011;11841;49.368;20.962;2023-05-07T11:20:11;2.85;;;2.25;;
23338;SDS011;11841;49.368;20.962;2023-05-07T11:22:57;2.13;;;1.92;;
23338;SDS011;11841;49.368;20.962;2023-05-07T11:25:43;2.50;;;2.05;;
23338;SDS011;11841;49.368;20.962;2023-05-07T11:28:28;3.33;;;2.40;;
23338;SDS011;11841;49.368;20.962;2023-05-07T11:31:15;4.55;;;3.10;;
23338;SDS011;11841;49.368;20.962;2023-05-07T11:34:06;3.22;;;2.40;;
23338;SDS011;11841;49.368;20.962;2023-05-07T11:36:52;2.92;;;2.20;;
23338;SDS011;11841;49.368;20.962;2023-05-07T11:39:38;3.00;;;2.25;;
23338;SDS011;11841;49.368;20.962;2023-05-07T11:45:22;3.30;;;2.40;;
23338;SDS011;11841;49.368;20.962;2023-05-07T11:48:09;3.90;;;3.05;;
23338;SDS011;11841;49.368;20.962;2023-05-07T11:53:44;3.10;;;2.42;;
23338;SDS011;11841;49.368;20.962;2023-05-07T11:56:33;3.03;;;2.45;;
23338;SDS011;11841;49.368;20.962;2023-05-07T11:59:20;4.30;;;2.45;;
23338;SDS011;11841;49.368;20.962;2023-05-07T12:02:06;5.68;;;2.80;;
23338;SDS011;11841;49.368;20.962;2023-05-07T12:04:52;2.72;;;2.53;;
23338;SDS011;11841;49.368;20.962;2023-05-07T12:07:39;3.92;;;2.78;;
23338;SDS011;11841;49.368;20.962;2023-05-07T12:10:24;4.82;;;3.30;;
23338;SDS011;11841;49.368;20.962;2023-05-07T12:13:16;17.13;;;9.50;;
23338;SDS011;11841;49.368;20.962;2023-05-07T12:16:05;6.07;;;3.78;;
23338;SDS011;11841;49.368;20.962;2023-05-07T12:18:51;6.80;;;5.07;;
23338;SDS011;11841;49.368;20.962;2023-05-07T12:21:40;3.67;;;3.15;;
23338;SDS011;11841;49.368;20.962;2023-05-07T12:24:25;3.13;;;2.78;;
23338;SDS011;11841;49.368;20.962;2023-05-07T12:27:11;5.40;;;3.35;;
23338;SDS011;11841;49.368;20.962;2023-05-07T12:29:57;4.53;;;3.92;;
23338;SDS011;11841;49.368;20.962;2023-05-07T12:32:44;5.40;;;4.15;;
23338;SDS011;11841;49.368;20.962;2023-05-07T12:35:31;4.22;;;3.63;;
23338;SDS011;11841;49.368;20.962;2023-05-07T12:38:20;4.20;;;3.22;;
23338;SDS011;11841;49.368;20.962;2023-05-07T12:41:07;5.43;;;3.72;;
23338;SDS011;11841;49.368;20.962;2023-05-07T12:43:55;4.18;;;3.58;;
23338;SDS011;11841;49.368;20.962;2023-05-07T12:46:42;4.13;;;3.00;;
23338;SDS011;11841;49.368;20.962;2023-05-07T12:49:27;3.63;;;2.72;;
23338;SDS011;11841;49.368;20.962;2023-05-07T12:52:13;3.83;;;2.90;;
23338;SDS011;11841;49.368;20.962;2023-05-07T12:55:04;6.32;;;3.20;;
23338;SDS011;11841;49.368;20.962;2023-05-07T12:57:52;4.72;;;3.25;;
23338;SDS011;11841;49.368;20.962;2023-05-07T13:00:38;2.58;;;2.33;;
23338;SDS011;11841;49.368;20.962;2023-05-07T13:03:33;4.20;;;2.95;;
23338;SDS011;11841;49.368;20.962;2023-05-07T13:06:21;16.77;;;14.02;;
23338;SDS011;11841;49.368;20.962;2023-05-07T13:09:06;3.65;;;3.10;;
23338;SDS011;11841;49.368;20.962;2023-05-07T13:11:52;5.40;;;4.38;;
23338;SDS011;11841;49.368;20.962;2023-05-07T13:14:37;3.47;;;3.17;;
23338;SDS011;11841;49.368;20.962;2023-05-07T13:17:22;3.20;;;2.90;;
23338;SDS011;11841;49.368;20.962;2023-05-07T13:20:11;4.25;;;3.15;;
23338;SDS011;11841;49.368;20.962;2023-05-07T13:22:57;4.03;;;3.00;;
23338;SDS011;11841;49.368;20.962;2023-05-07T13:25:45;4.88;;;3.67;;
23338;SDS011;11841;49.368;20.962;2023-05-07T13:28:31;5.07;;;3.47;;
23338;SDS011;11841;49.368;20.962;2023-05-07T13:31:16;5.20;;;3.40;;
23338;SDS011;11841;49.368;20.962;2023-05-07T13:34:02;4.40;;;3.55;;
23338;SDS011;11841;49.368;20.962;2023-05-07T13:36:48;5.28;;;3.28;;
23338;SDS011;11841;49.368;20.962;2023-05-07T13:39:33;4.57;;;3.40;;
23338;SDS011;11841;49.368;20.962;2023-05-07T13:42:18;4.93;;;3.63;;
23338;SDS011;11841;49.368;20.962;2023-05-07T13:45:04;9.18;;;5.90;;
23338;SDS011;11841;49.368;20.962;2023-05-07T13:47:50;24.00;;;11.68;;
23338;SDS011;11841;49.368;20.962;2023-05-07T13:50:35;14.57;;;7.78;;
23338;SDS011;11841;49.368;20.962;2023-05-07T13:53:20;12.95;;;8.40;;
23338;SDS011;11841;49.368;20.962;2023-05-07T13:56:06;9.88;;;5.80;;
23338;SDS011;11841;49.368;20.962;2023-05-07T13:58:51;10.48;;;6.25;;
23338;SDS011;11841;49.368;20.962;2023-05-07T14:01:44;9.48;;;6.43;;
23338;SDS011;11841;49.368;20.962;2023-05-07T14:04:30;10.35;;;6.32;;
23338;SDS011;11841;49.368;20.962;2023-05-07T14:07:16;10.65;;;6.97;;
23338;SDS011;11841;49.368;20.962;2023-05-07T14:10:01;9.57;;;6.70;;
23338;SDS011;11841;49.368;20.962;2023-05-07T14:12:47;9.25;;;6.03;;
23338;SDS011;11841;49.368;20.962;2023-05-07T14:15:33;11.50;;;6.38;;
23338;SDS011;11841;49.368;20.962;2023-05-07T14:18:18;10.35;;;6.90;;
23338;SDS011;11841;49.368;20.962;2023-05-07T14:21:04;14.15;;;7.70;;
23338;SDS011;11841;49.368;20.962;2023-05-07T14:23:51;12.00;;;6.95;;
23338;SDS011;11841;49.368;20.962;2023-05-07T14:26:36;12.02;;;7.82;;
23338;SDS011;11841;49.368;20.962;2023-05-07T14:29:22;9.23;;;7.00;;
23338;SDS011;11841;49.368;20.962;2023-05-07T14:32:08;10.30;;;6.90;;
23338;SDS011;11841;49.368;20.962;2023-05-07T14:34:53;11.07;;;7.40;;
23338;SDS011;11841;49.368;20.962;2023-05-07T14:37:38;13.40;;;8.65;;
23338;SDS011;11841;49.368;20.962;2023-05-07T14:40:24;15.00;;;9.25;;
23338;SDS011;11841;49.368;20.962;2023-05-07T14:43:09;14.32;;;8.00;;
23338;SDS011;11841;49.368;20.962;2023-05-07T14:45:54;11.75;;;7.82;;
23338;SDS011;11841;49.368;20.962;2023-05-07T14:48:40;12.40;;;7.18;;
23338;SDS011;11841;49.368;20.962;2023-05-07T14:51:25;10.30;;;8.10;;
23338;SDS011;11841;49.368;20.962;2023-05-07T14:54:13;10.45;;;7.18;;
23338;SDS011;11841;49.368;20.962;2023-05-07T14:56:59;13.40;;;8.10;;
23338;SDS011;11841;49.368;20.962;2023-05-07T14:59:44;10.35;;;7.20;;
23338;SDS011;11841;49.368;20.962;2023-05-07T15:02:30;10.20;;;6.82;;
23338;SDS011;11841;49.368;20.962;2023-05-07T15:05:15;12.70;;;8.40;;
23338;SDS011;11841;49.368;20.962;2023-05-07T15:08:02;10.48;;;6.93;;
23338;SDS011;11841;49.368;20.962;2023-05-07T15:10:49;10.00;;;6.72;;
23338;SDS011;11841;49.368;20.962;2023-05-07T15:13:34;16.95;;;10.18;;
23338;SDS011;11841;49.368;20.962;2023-05-07T15:16:19;12.20;;;8.48;;
23338;SDS011;11841;49.368;20.962;2023-05-07T15:19:05;14.75;;;9.10;;
23338;SDS011;11841;49.368;20.962;2023-05-07T15:21:50;11.73;;;7.53;;
23338;SDS011;11841;49.368;20.962;2023-05-07T15:24:38;13.45;;;8.65;;
23338;SDS011;11841;49.368;20.962;2023-05-07T15:27:24;10.57;;;6.95;;
23338;SDS011;11841;49.368;20.962;2023-05-07T15:30:09;10.88;;;7.53;;
23338;SDS011;11841;49.368;20.962;2023-05-07T15:32:55;20.30;;;11.63;;
23338;SDS011;11841;49.368;20.962;2023-05-07T15:35:41;11.35;;;8.35;;
23338;SDS011;11841;49.368;20.962;2023-05-07T15:38:27;11.70;;;7.72;;
23338;SDS011;11841;49.368;20.962;2023-05-07T15:41:13;12.77;;;8.45;;
23338;SDS011;11841;49.368;20.962;2023-05-07T15:43:58;21.73;;;11.98;;
23338;SDS011;11841;49.368;20.962;2023-05-07T15:46:43;17.58;;;9.88;;
23338;SDS011;11841;49.368;20.962;2023-05-07T15:49:29;14.90;;;8.82;;
23338;SDS011;11841;49.368;20.962;2023-05-07T15:52:14;16.70;;;10.15;;
23338;SDS011;11841;49.368;20.962;2023-05-07T15:55:00;12.65;;;8.40;;
23338;SDS011;11841;49.368;20.962;2023-05-07T15:57:47;12.50;;;7.82;;
23338;SDS011;11841;49.368;20.962;2023-05-07T16:00:33;14.30;;;9.95;;
23338;SDS011;11841;49.368;20.962;2023-05-07T16:03:20;15.23;;;9.52;;
23338;SDS011;11841;49.368;20.962;2023-05-07T16:06:06;16.33;;;10.15;;
23338;SDS011;11841;49.368;20.962;2023-05-07T16:08:53;21.83;;;11.85;;
23338;SDS011;11841;49.368;20.962;2023-05-07T16:11:39;17.20;;;9.70;;
23338;SDS011;11841;49.368;20.962;2023-05-07T16:14:24;18.52;;;10.35;;
23338;SDS011;11841;49.368;20.962;2023-05-07T16:17:09;12.35;;;8.70;;
23338;SDS011;11841;49.368;20.962;2023-05-07T16:19:55;13.70;;;7.43;;
23338;SDS011;11841;49.368;20.962;2023-05-07T16:22:43;10.88;;;8.02;;
23338;SDS011;11841;49.368;20.962;2023-05-07T16:25:28;13.10;;;7.30;;
23338;SDS011;11841;49.368;20.962;2023-05-07T16:28:14;13.30;;;7.93;;
23338;SDS011;11841;49.368;20.962;2023-05-07T16:30:59;13.52;;;8.50;;
23338;SDS011;11841;49.368;20.962;2023-05-07T16:34:03;17.05;;;10.10;;